Time;durP1;ratioP1;P1;durP2;ratioP2;P2;SDS_P1;SDS_P2;PMS_P1;PMS_P2;Temp;Humidity;BMP_temperature;BMP_pressure;BME280_temperature;BME280_humidity;BME280_pressure;Samples;Min_cycle;Max_cycle;Signal;HPM_P1;HPM_P2
2024/04/10 00:00:20;;;;;;;10.50;1.98;;;8.00;99.90;;;;;;5433848;26;19999;-68
2024/04/10 00:02:48;;;;;;;15.73;3.58;;;8.00;99.90;;;;;;5424573;26;19999;-69
2024/04/10 00:05:17;;;;;;;15.50;3.13;;;8.00;99.90;;;;;;5430345;26;20517;-69
2024/04/10 00:07:44;;;;;;;13.20;1.95;;;7.90;99.90;;;;;;5452222;26;20006;-69
2024/04/10 00:10:13;;;;;;;7.00;1.60;;;7.90;99.90;;;;;;5398415;26;20042;-69
2024/04/10 00:12:39;;;;;;;11.38;2.30;;;7.90;99.90;;;;;;5427033;26;20323;-69
2024/04/10 00:15:06;;;;;;;25.02;2.28;;;7.90;99.90;;;;;;5432424;26;19995;-70
2024/04/10 00:17:33;;;;;;;12.00;1.70;;;7.90;99.90;;;;;;5450294;26;19999;-70
2024/04/10 00:20:00;;;;;;;11.80;1.52;;;7.80;99.90;;;;;;5440535;26;20425;-69
2024/04/10 00:22:28;;;;;;;13.43;1.98;;;7.90;99.90;;;;;;5457141;26;20017;-70
2024/04/10 00:24:54;;;;;;;18.10;2.80;;;7.80;99.90;;;;;;5441869;26;20075;-70
2024/04/10 00:27:22;;;;;;;15.55;2.30;;;7.80;99.90;;;;;;5474556;26;20014;-70
2024/04/10 00:29:50;;;;;;;14.52;2.97;;;7.80;99.90;;;;;;5459794;26;20075;-69
2024/04/10 00:32:17;;;;;;;10.93;1.90;;;7.70;99.90;;;;;;5431850;26;20039;-69
2024/04/10 00:34:45;;;;;;;13.00;3.38;;;7.70;99.90;;;;;;5461712;26;20021;-70
2024/04/10 00:37:13;;;;;;;10.90;2.50;;;7.70;99.90;;;;;;5436048;26;19999;-69
2024/04/10 00:39:40;;;;;;;10.75;2.05;;;7.60;99.90;;;;;;5438568;26;20002;-71
2024/04/10 00:42:07;;;;;;;10.52;2.22;;;7.70;99.90;;;;;;5439986;26;20006;-70
2024/04/10 00:44:35;;;;;;;11.32;2.00;;;7.60;99.90;;;;;;5447398;26;20018;-70
2024/04/10 00:47:03;;;;;;;10.05;2.00;;;7.60;99.90;;;;;;5436816;26;20006;-71
2024/04/10 00:49:30;;;;;;;16.42;2.60;;;7.60;99.90;;;;;;5443826;26;20002;-70
2024/04/10 00:51:57;;;;;;;15.63;2.20;;;7.60;99.90;;;;;;5421011;26;20000;-70
2024/04/10 00:54:24;;;;;;;10.18;1.98;;;7.60;99.90;;;;;;5415535;26;20099;-69
2024/04/10 00:56:50;;;;;;;6.57;1.63;;;7.60;99.90;;;;;;5445693;26;19995;-69
2024/04/10 00:59:18;;;;;;;10.73;2.08;;;7.50;99.90;;;;;;5441577;26;20007;-71
2024/04/10 01:01:45;;;;;;;14.07;1.80;;;7.50;99.90;;;;;;5429811;26;20015;-69
2024/04/10 01:04:12;;;;;;;11.77;2.45;;;7.60;99.90;;;;;;5438297;26;20008;-70
2024/04/10 01:06:39;;;;;;;9.85;1.83;;;7.50;99.90;;;;;;5447984;26;20031;-69
2024/04/10 01:09:06;;;;;;;13.32;1.85;;;7.50;99.90;;;;;;5447901;26;19999;-69
2024/04/10 01:11:33;;;;;;;8.18;1.52;;;7.50;99.90;;;;;;5419935;26;20808;-69
2024/04/10 01:14:00;;;;;;;11.23;2.20;;;7.50;99.90;;;;;;5441899;26;20003;-69
2024/04/10 01:16:27;;;;;;;15.98;2.22;;;7.50;99.90;;;;;;5443042;26;20078;-70
2024/04/10 01:18:54;;;;;;;13.43;1.77;;;7.50;99.90;;;;;;5455385;26;20006;-69
2024/04/10 01:21:21;;;;;;;17.65;3.10;;;7.50;99.90;;;;;;5432496;26;20002;-69
2024/04/10 01:23:48;;;;;;;15.52;3.55;;;7.40;99.90;;;;;;5437736;26;20003;-69
2024/04/10 01:26:15;;;;;;;18.38;4.15;;;7.50;99.90;;;;;;5443797;26;20064;-70
2024/04/10 01:28:41;;;;;;;13.68;3.45;;;7.40;99.90;;;;;;5438482;26;20709;-70
2024/04/10 01:31:09;;;;;;;8.35;2.10;;;7.40;99.90;;;;;;5440643;26;20013;-70
2024/04/10 01:33:35;;;;;;;5.07;1.65;;;7.40;99.90;;;;;;5437381;26;20006;-70
2024/04/10 01:36:07;;;;;;;13.55;2.30;;;7.40;99.90;;;;;;5443316;26;20507;-70
2024/04/10 01:38:35;;;;;;;15.63;2.05;;;7.30;99.90;;;;;;5429942;26;20023;-69
2024/04/10 01:41:02;;;;;;;9.57;1.95;;;7.30;99.90;;;;;;5418457;26;20052;-70
2024/04/10 01:43:29;;;;;;;13.27;2.33;;;7.30;99.90;;;;;;5401715;26;20434;-69
2024/04/10 01:45:56;;;;;;;10.60;1.73;;;7.40;99.90;;;;;;5430081;26;20015;-70
2024/04/10 01:48:23;;;;;;;19.20;2.67;;;7.30;99.90;;;;;;5444390;26;20110;-70
2024/04/10 01:50:50;;;;;;;17.08;2.40;;;7.30;99.90;;;;;;5441601;26;20013;-69
2024/04/10 01:53:17;;;;;;;15.23;2.00;;;7.30;99.90;;;;;;5408397;26;20551;-69
2024/04/10 01:55:44;;;;;;;12.63;1.95;;;7.30;99.90;;;;;;5430114;26;20000;-69
2024/04/10 01:58:13;;;;;;;11.18;2.67;;;7.30;99.90;;;;;;5429734;26;20007;-69
2024/04/10 02:00:40;;;;;;;20.75;3.40;;;7.30;99.90;;;;;;5444076;26;19995;-70
2024/04/10 02:03:07;;;;;;;20.13;2.13;;;7.30;99.90;;;;;;5402641;26;20007;-69
2024/04/10 02:05:34;;;;;;;13.18;2.17;;;7.30;99.90;;;;;;5426509;26;20021;-70
2024/04/10 02:08:01;;;;;;;12.57;2.10;;;7.30;99.90;;;;;;5452617;26;20007;-70
2024/04/10 02:10:28;;;;;;;10.30;2.22;;;7.20;99.90;;;;;;5434158;26;20014;-69
2024/04/10 02:12:55;;;;;;;13.20;2.05;;;7.20;99.90;;;;;;5447934;26;20002;-70
2024/04/10 02:15:22;;;;;;;16.70;3.17;;;7.20;99.90;;;;;;5445584;26;19995;-70
2024/04/10 02:17:48;;;;;;;15.20;1.95;;;7.20;99.90;;;;;;5450340;26;20092;-70
2024/04/10 02:20:16;;;;;;;8.23;1.67;;;7.10;99.90;;;;;;5399504;26;20031;-70
2024/04/10 02:22:43;;;;;;;12.27;2.20;;;7.10;99.90;;;;;;5435515;26;20034;-69
2024/04/10 02:25:10;;;;;;;12.75;2.92;;;7.20;99.90;;;;;;5435364;26;20006;-70
2024/04/10 02:27:37;;;;;;;8.95;1.73;;;7.10;99.90;;;;;;5442153;26;20091;-69
2024/04/10 02:30:06;;;;;;;13.43;2.13;;;7.10;99.90;;;;;;5437370;26;20014;-69
2024/04/10 02:32:33;;;;;;;13.95;2.15;;;7.10;99.90;;;;;;5440522;26;20002;-69
2024/04/10 02:35:00;;;;;;;10.93;2.08;;;7.10;99.90;;;;;;5407194;26;20011;-69
2024/04/10 02:37:27;;;;;;;21.00;2.30;;;7.10;99.90;;;;;;5455539;26;19999;-69
2024/04/10 02:39:54;;;;;;;17.13;2.60;;;7.10;99.90;;;;;;5428147;26;19999;-70
2024/04/10 02:42:21;;;;;;;14.23;2.15;;;7.10;99.90;;;;;;5444200;26;19999;-69
2024/04/10 02:44:51;;;;;;;10.27;2.00;;;7.10;99.90;;;;;;5405769;26;20068;-69
2024/04/10 02:47:21;;;;;;;11.95;2.22;;;7.10;99.90;;;;;;5428193;26;19999;-70
2024/04/10 02:49:48;;;;;;;9.88;1.90;;;7.00;99.90;;;;;;5442588;26;19995;-70
2024/04/10 02:52:15;;;;;;;16.75;2.17;;;7.10;99.90;;;;;;5429732;26;20099;-70
2024/04/10 02:54:42;;;;;;;11.48;3.75;;;7.10;99.90;;;;;;5429285;26;20075;-69
2024/04/10 02:57:10;;;;;;;19.23;1.90;;;7.00;99.90;;;;;;5438713;26;20007;-69
2024/04/10 02:59:37;;;;;;;26.95;3.55;;;7.00;99.90;;;;;;5386773;26;20018;-69
2024/04/10 03:02:04;;;;;;;11.82;2.00;;;7.00;99.90;;;;;;5443813;26;20034;-70
2024/04/10 03:04:32;;;;;;;13.27;2.88;;;7.00;99.90;;;;;;5432025;26;20034;-69
2024/04/10 03:06:59;;;;;;;8.40;2.08;;;7.00;99.90;;;;;;5438118;26;20006;-69
2024/04/10 03:09:26;;;;;;;13.88;2.60;;;7.00;99.90;;;;;;5437389;26;20009;-69
2024/04/10 03:11:53;;;;;;;12.50;2.10;;;7.10;99.90;;;;;;5426907;26;20007;-69
2024/04/10 03:14:20;;;;;;;19.08;2.22;;;7.00;99.90;;;;;;5441596;26;20017;-69
2024/04/10 03:16:47;;;;;;;15.00;3.88;;;7.00;99.90;;;;;;5442654;26;20018;-69
2024/04/10 03:19:15;;;;;;;14.52;2.42;;;7.00;99.90;;;;;;5452752;26;20528;-70
2024/04/10 03:21:42;;;;;;;15.02;2.92;;;7.00;99.90;;;;;;5438986;26;20112;-69
2024/04/10 03:24:09;;;;;;;16.38;2.00;;;7.00;99.90;;;;;;5434889;26;20091;-69
2024/04/10 03:26:36;;;;;;;15.98;2.47;;;7.00;99.90;;;;;;5429998;26;20395;-69
2024/04/10 03:29:03;;;;;;;16.73;3.67;;;7.00;99.90;;;;;;5440307;26;20002;-69
2024/04/10 03:31:30;;;;;;;9.88;3.45;;;7.00;99.90;;;;;;5428972;26;20016;-70
2024/04/10 03:33:57;;;;;;;9.98;1.52;;;7.00;99.90;;;;;;5437376;26;20330;-68
2024/04/10 03:36:24;;;;;;;13.75;2.00;;;7.00;99.90;;;;;;5424991;26;20011;-69
2024/04/10 03:38:51;;;;;;;18.10;2.08;;;7.00;99.90;;;;;;5435114;26;20006;-68
2024/04/10 03:41:20;;;;;;;9.30;1.90;;;6.90;99.90;;;;;;5428236;26;20007;-70
2024/04/10 03:43:48;;;;;;;21.42;2.65;;;6.90;99.90;;;;;;5428128;26;20014;-69
2024/04/10 03:46:17;;;;;;;12.55;2.05;;;6.90;99.90;;;;;;5434287;26;20025;-69
2024/04/10 03:48:44;;;;;;;13.60;2.15;;;6.90;99.90;;;;;;5438490;26;20019;-68
2024/04/10 03:51:12;;;;;;;6.40;1.63;;;6.80;99.90;;;;;;5434516;26;20010;-68
2024/04/10 03:53:40;;;;;;;13.40;2.33;;;6.80;99.90;;;;;;5435408;26;20079;-69
2024/04/10 03:56:07;;;;;;;9.30;1.58;;;6.80;99.90;;;;;;5419371;26;20007;-69
2024/04/10 03:58:36;;;;;;;6.03;1.38;;;6.70;99.90;;;;;;5412019;26;20003;-68
2024/04/10 04:01:03;;;;;;;8.05;1.60;;;6.70;99.90;;;;;;5432842;26;20011;-69
2024/04/10 04:03:30;;;;;;;11.88;2.80;;;6.60;99.90;;;;;;5433089;26;20002;-69
2024/04/10 04:05:57;;;;;;;12.15;1.50;;;6.60;99.90;;;;;;5444105;26;20016;-69
2024/04/10 04:08:24;;;;;;;15.10;2.25;;;6.60;99.90;;;;;;5446699;26;20183;-69
2024/04/10 04:10:53;;;;;;;8.65;1.75;;;6.60;99.90;;;;;;5428526;26;19994;-69
2024/04/10 04:13:21;;;;;;;13.27;2.05;;;6.60;99.90;;;;;;5431036;26;20518;-69
2024/04/10 04:15:48;;;;;;;11.38;2.50;;;6.50;99.90;;;;;;5447580;26;20006;-69
2024/04/10 04:18:15;;;;;;;15.68;2.53;;;6.50;99.90;;;;;;5429279;26;20463;-69
2024/04/10 04:20:42;;;;;;;11.40;2.38;;;6.40;99.90;;;;;;5428799;26;20520;-69
2024/04/10 04:23:09;;;;;;;13.57;2.47;;;6.40;99.90;;;;;;5441703;26;20015;-70
2024/04/10 04:25:36;;;;;;;19.33;2.05;;;6.40;99.90;;;;;;5435992;26;20006;-70
2024/04/10 04:28:03;;;;;;;11.90;2.63;;;6.40;99.90;;;;;;5429794;26;20399;-69
2024/04/10 04:30:30;;;;;;;11.80;2.50;;;6.40;99.90;;;;;;5455733;26;20476;-69
2024/04/10 04:33:00;;;;;;;11.15;2.20;;;6.40;99.90;;;;;;5437342;26;20010;-69
2024/04/10 04:35:28;;;;;;;18.05;5.85;;;6.30;99.90;;;;;;5445526;26;20014;-69
2024/04/10 04:37:59;;;;;;;10.07;2.60;;;6.30;99.90;;;;;;5409966;26;19999;-69
2024/04/10 04:40:32;;;;;;;12.38;2.05;;;6.30;99.90;;;;;;5446442;26;20331;-69
2024/04/10 04:42:59;;;;;;;13.20;2.27;;;6.20;99.90;;;;;;5395857;26;20011;-69
2024/04/10 04:45:27;;;;;;;11.57;2.22;;;6.20;99.90;;;;;;5436404;26;20543;-69
2024/04/10 04:47:54;;;;;;;12.25;2.25;;;6.30;99.90;;;;;;5445021;26;19995;-69
2024/04/10 04:50:21;;;;;;;18.30;3.22;;;6.30;99.90;;;;;;5437443;26;20007;-69
2024/04/10 04:52:48;;;;;;;12.80;3.97;;;6.40;99.90;;;;;;5438975;26;20070;-69
2024/04/10 04:55:15;;;;;;;9.02;2.17;;;6.30;99.90;;;;;;5432260;26;20003;-69
2024/04/10 04:57:42;;;;;;;13.05;1.98;;;6.30;99.90;;;;;;5441953;26;20011;-69
2024/04/10 05:00:14;;;;;;;9.60;2.25;;;6.30;99.90;;;;;;5433337;26;20249;-69
2024/04/10 05:02:41;;;;;;;9.85;2.78;;;6.30;99.90;;;;;;5429201;26;20033;-69
2024/04/10 05:05:15;;;;;;;13.80;2.42;;;6.30;99.90;;;;;;5436746;26;20019;-69
2024/04/10 05:07:43;;;;;;;10.88;2.00;;;6.30;99.90;;;;;;5424198;26;20014;-69
2024/04/10 05:10:10;;;;;;;21.83;3.25;;;6.30;99.90;;;;;;5436343;26;20022;-71
2024/04/10 05:12:38;;;;;;;15.07;2.97;;;6.40;99.90;;;;;;5440255;26;20077;-68
2024/04/10 05:15:06;;;;;;;19.02;4.43;;;6.30;99.90;;;;;;5442177;26;20002;-68
2024/04/10 05:17:33;;;;;;;9.13;2.40;;;6.40;99.90;;;;;;5439939;26;20462;-69
2024/04/10 05:20:00;;;;;;;17.35;2.35;;;6.30;99.90;;;;;;5426826;26;20002;-68
2024/04/10 05:22:27;;;;;;;18.45;2.35;;;6.30;99.90;;;;;;5445623;26;20543;-69
2024/04/10 05:24:54;;;;;;;12.75;2.10;;;6.40;99.90;;;;;;5438073;26;20076;-68
2024/04/10 05:27:26;;;;;;;13.60;1.88;;;6.40;99.90;;;;;;5440415;26;19996;-69
2024/04/10 05:30:16;;;;;;;9.35;1.80;;;6.40;99.90;;;;;;5431309;26;20012;-69
2024/04/10 05:32:43;;;;;;;10.38;1.92;;;6.50;99.90;;;;;;5421245;26;20400;-68
2024/04/10 05:35:11;;;;;;;7.45;2.10;;;6.50;99.90;;;;;;5399404;26;20057;-69
2024/04/10 05:37:39;;;;;;;13.85;2.13;;;6.50;99.90;;;;;;5430617;26;20018;-69
2024/04/10 05:40:13;;;;;;;9.43;1.55;;;6.40;99.90;;;;;;5445100;26;20021;-69
2024/04/10 05:42:41;;;;;;;;;;;6.50;99.90;;;;;;5434929;26;20079;-69
2024/04/10 05:45:08;;;;;;;18.00;3.65;;;6.50;99.90;;;;;;5430168;26;19932;-68
2024/04/10 05:47:36;;;;;;;7.28;1.67;;;6.50;99.90;;;;;;5437622;26;20005;-69
2024/04/10 05:50:04;;;;;;;13.98;1.73;;;6.60;99.90;;;;;;5426537;26;20577;-69
2024/04/10 05:52:31;;;;;;;11.05;2.38;;;6.60;99.90;;;;;;5442222;26;20010;-68
2024/04/10 05:54:58;;;;;;;9.15;2.20;;;6.60;99.90;;;;;;5441275;26;19999;-69
2024/04/10 05:57:26;;;;;;;10.80;2.20;;;6.60;99.90;;;;;;5438718;26;20010;-69
2024/04/10 05:59:54;;;;;;;13.25;2.58;;;6.60;99.90;;;;;;5438291;26;20562;-69
2024/04/10 06:02:22;;;;;;;16.40;2.50;;;6.70;99.90;;;;;;5393886;26;20011;-68
2024/04/10 06:04:55;;;;;;;17.75;2.40;;;6.70;99.90;;;;;;5447697;26;20021;-69
2024/04/10 06:07:23;;;;;;;8.27;2.20;;;6.70;99.90;;;;;;5397176;26;20024;-70
2024/04/10 06:09:54;;;;;;;13.38;2.78;;;6.80;99.90;;;;;;5440645;26;20014;-70
2024/04/10 06:12:21;;;;;;;7.82;2.28;;;6.80;99.90;;;;;;5370889;26;20013;-71
2024/04/10 06:14:52;;;;;;;14.40;2.65;;;6.90;99.90;;;;;;5418563;26;20009;-70
2024/04/10 06:17:22;;;;;;;11.77;2.45;;;7.00;99.90;;;;;;5432162;26;20000;-72
2024/04/10 06:19:49;;;;;;;16.80;2.00;;;7.10;99.90;;;;;;5430899;26;20470;-68
2024/04/10 06:22:16;;;;;;;16.13;2.08;;;7.10;99.90;;;;;;5435528;26;20003;-68
2024/04/10 06:24:49;;;;;;;15.50;2.85;;;7.20;99.90;;;;;;5434106;26;20051;-68
2024/04/10 06:27:15;;;;;;;19.27;5.75;;;7.20;99.90;;;;;;5424482;26;20091;-68
2024/04/10 06:29:43;;;;;;;17.42;2.17;;;7.20;99.90;;;;;;5438620;26;20017;-67
2024/04/10 06:32:11;;;;;;;17.45;3.05;;;7.30;99.90;;;;;;5440605;26;20006;-69
2024/04/10 06:34:38;;;;;;;10.40;2.00;;;7.30;99.90;;;;;;5436809;26;20011;-68
2024/04/10 06:38:19;;;;;;;18.50;2.65;;;7.40;99.90;;;;;;5447668;26;21047;-69
2024/04/10 06:40:56;;;;;;;10.77;1.73;;;7.50;99.90;;;;;;5407395;26;20000;-68
2024/04/10 06:43:23;;;;;;;19.63;2.38;;;7.50;99.90;;;;;;5410922;26;20026;-68
2024/04/10 06:46:00;;;;;;;17.52;4.05;;;7.60;99.90;;;;;;5411159;26;20012;-68
2024/04/10 06:48:27;;;;;;;12.07;2.28;;;7.60;99.90;;;;;;5410826;26;20072;-68
2024/04/10 06:50:56;;;;;;;9.10;2.03;;;7.60;99.90;;;;;;5414026;26;20018;-69
2024/04/10 06:53:23;;;;;;;11.95;2.35;;;7.70;99.90;;;;;;5421219;26;20007;-70
2024/04/10 06:55:55;;;;;;;15.88;2.42;;;7.80;99.90;;;;;;5421083;26;20007;-70
2024/04/10 06:58:23;;;;;;;13.48;2.40;;;7.80;99.90;;;;;;5416839;26;20014;-70
2024/04/10 07:01:06;;;;;;;15.43;2.28;;;7.90;99.90;;;;;;5422273;26;20007;-70
2024/04/10 07:03:39;;;;;;;11.38;2.13;;;7.90;99.90;;;;;;5419301;26;20043;-69
2024/04/10 07:06:14;;;;;;;6.88;1.88;;;8.00;99.90;;;;;;5422103;26;20010;-70
2024/04/10 07:08:42;;;;;;;15.90;2.80;;;8.00;99.90;;;;;;5418322;26;20017;-70
2024/04/10 07:11:14;;;;;;;10.30;2.10;;;8.10;99.90;;;;;;5418455;26;20015;-71
2024/04/10 07:13:46;;;;;;;12.63;2.05;;;8.10;99.90;;;;;;5419238;26;19995;-70
2024/04/10 07:16:13;;;;;;;17.85;2.83;;;8.20;99.90;;;;;;5420535;26;20067;-70
2024/04/10 07:18:40;;;;;;;12.88;2.53;;;8.30;99.90;;;;;;5418989;26;19999;-70
2024/04/10 07:21:08;;;;;;;14.02;2.08;;;8.30;99.90;;;;;;5423723;26;20014;-70
2024/04/10 07:23:42;;;;;;;11.82;2.10;;;8.40;99.90;;;;;;5419285;26;20069;-70
2024/04/10 07:26:12;;;;;;;9.93;2.28;;;8.50;99.90;;;;;;5421044;26;20022;-70
2024/04/10 07:28:45;;;;;;;13.55;2.92;;;8.50;99.90;;;;;;5418915;26;20003;-69
2024/04/10 07:31:16;;;;;;;14.90;2.63;;;8.50;99.90;;;;;;5420634;26;20015;-69
2024/04/10 07:33:43;;;;;;;20.50;2.78;;;8.60;99.90;;;;;;5420757;26;20010;-70
2024/04/10 07:36:14;;;;;;;21.17;2.67;;;8.60;99.90;;;;;;5421184;26;20004;-70
2024/04/10 07:38:41;;;;;;;17.95;2.72;;;8.70;99.90;;;;;;5418894;26;20080;-71
2024/04/10 07:41:09;;;;;;;18.98;2.88;;;8.70;99.90;;;;;;5422073;26;20034;-70
2024/04/10 07:43:36;;;;;;;11.05;2.20;;;8.80;99.90;;;;;;5418003;26;20049;-70
2024/04/10 07:46:10;;;;;;;19.85;2.92;;;8.80;99.90;;;;;;5423290;26;20015;-70
2024/04/10 07:48:38;;;;;;;20.20;3.55;;;8.90;99.90;;;;;;5414144;26;20462;-69
2024/04/10 07:51:12;;;;;;;16.40;2.08;;;8.90;99.90;;;;;;5406981;26;20004;-70
2024/04/10 07:53:40;;;;;;;18.45;2.38;;;8.90;99.90;;;;;;5409256;26;19995;-70
2024/04/10 07:56:08;;;;;;;10.93;2.00;;;9.00;99.90;;;;;;5400258;26;20004;-70
2024/04/10 07:58:38;;;;;;;16.27;2.30;;;9.10;99.90;;;;;;5394743;26;20004;-70
2024/04/10 08:01:05;;;;;;;26.25;2.78;;;9.00;99.90;;;;;;5363732;26;20540;-70
2024/04/10 08:03:32;;;;;;;21.17;2.33;;;9.10;99.90;;;;;;5401769;26;20458;-70
2024/04/10 08:06:01;;;;;;;12.25;2.50;;;9.20;99.90;;;;;;5407087;26;20006;-69
2024/04/10 08:08:28;;;;;;;18.67;2.38;;;9.20;99.90;;;;;;5406875;26;20043;-70
2024/04/10 08:11:02;;;;;;;16.00;2.35;;;9.30;99.90;;;;;;5409245;26;19996;-69
2024/04/10 08:13:30;;;;;;;11.68;2.42;;;9.40;99.90;;;;;;5405392;26;20001;-69
2024/04/10 08:16:01;;;;;;;10.18;1.75;;;9.50;99.90;;;;;;5408609;26;20007;-70
2024/04/10 08:18:28;;;;;;;11.13;2.35;;;9.60;99.90;;;;;;5406714;26;20003;-71
2024/04/10 08:21:13;;;;;;;16.02;3.40;;;9.70;99.90;;;;;;5405348;26;20334;-70
2024/04/10 08:23:41;;;;;;;10.20;1.70;;;9.80;99.90;;;;;;5393543;26;20035;-70
2024/04/10 08:26:12;;;;;;;21.38;3.53;;;9.90;99.90;;;;;;5404216;26;20022;-70
2024/04/10 08:28:45;;;;;;;10.65;2.30;;;10.00;99.90;;;;;;5407217;26;20014;-70
2024/04/10 08:31:15;;;;;;;31.55;3.10;;;10.00;99.90;;;;;;5404709;26;20016;-71
2024/04/10 08:33:43;;;;;;;10.30;1.90;;;10.10;99.90;;;;;;5405408;26;20000;-70
2024/04/10 08:36:12;;;;;;;13.07;2.58;;;10.20;99.90;;;;;;5405616;26;20022;-70
2024/04/10 08:38:43;;;;;;;16.60;3.00;;;10.30;99.90;;;;;;5394807;26;20003;-69
2024/04/10 08:41:19;;;;;;;18.17;2.75;;;10.40;99.90;;;;;;5402892;26;20389;-70
2024/04/10 08:43:47;;;;;;;16.02;2.72;;;10.40;99.90;;;;;;5406381;26;19995;-70
2024/04/10 08:46:15;;;;;;;16.05;2.38;;;10.40;99.90;;;;;;5400593;26;20040;-70
2024/04/10 08:48:43;;;;;;;10.60;1.42;;;10.40;99.90;;;;;;5407085;26;20046;-70
2024/04/10 08:51:14;;;;;;;8.40;1.33;;;10.30;99.90;;;;;;5406031;26;20008;-70
2024/04/10 08:53:43;;;;;;;12.07;2.30;;;10.30;99.90;;;;;;5408402;26;20004;-69
2024/04/10 08:56:10;;;;;;;15.27;2.65;;;10.40;99.90;;;;;;5407059;26;20031;-70
2024/04/10 08:58:37;;;;;;;18.90;2.63;;;10.40;99.90;;;;;;5404905;26;20007;-69
2024/04/10 09:01:06;;;;;;;18.65;2.67;;;10.50;99.90;;;;;;5406045;26;20004;-70
2024/04/10 09:03:33;;;;;;;13.35;2.72;;;10.50;99.90;;;;;;5405919;26;20014;-70
2024/04/10 09:06:07;;;;;;;17.50;2.75;;;10.60;99.90;;;;;;5408960;26;20010;-69
2024/04/10 09:08:36;;;;;;;12.20;1.98;;;10.70;99.90;;;;;;5405770;26;20072;-69
2024/04/10 09:11:03;;;;;;;13.13;2.25;;;10.70;99.90;;;;;;5406309;26;20015;-69
2024/04/10 09:13:30;;;;;;;10.73;2.50;;;10.80;99.90;;;;;;5402774;26;20004;-70
2024/04/10 09:15:57;;;;;;;9.88;2.08;;;10.90;99.90;;;;;;5405910;26;19999;-70
2024/04/10 09:18:25;;;;;;;11.98;1.50;;;11.10;99.90;;;;;;5399423;26;20442;-70
2024/04/10 09:21:10;;;;;;;13.85;2.63;;;11.10;99.90;;;;;;5404798;26;20367;-70
2024/04/10 09:23:38;;;;;;;12.07;1.88;;;11.20;99.90;;;;;;5397407;26;20014;-71
2024/04/10 09:26:05;;;;;;;11.50;2.33;;;11.30;99.90;;;;;;5404405;26;20346;-70
2024/04/10 09:28:35;;;;;;;26.90;3.45;;;11.50;99.90;;;;;;5407092;26;20023;-70
2024/04/10 09:31:02;;;;;;;15.82;2.42;;;11.60;99.90;;;;;;5404121;26;19996;-70
2024/04/10 09:33:33;;;;;;;11.63;1.90;;;11.90;99.90;;;;;;5407005;26;20019;-71
2024/04/10 09:36:02;;;;;;;18.33;2.15;;;12.30;99.90;;;;;;5406068;26;20424;-71
2024/04/10 09:38:30;;;;;;;12.48;2.13;;;12.60;99.90;;;;;;5404067;26;20008;-70
2024/04/10 09:41:02;;;;;;;9.57;1.65;;;12.90;99.90;;;;;;5403854;26;20014;-71
2024/04/10 09:43:30;;;;;;;10.13;1.42;;;13.10;99.90;;;;;;5407419;26;20076;-70
2024/04/10 09:45:57;;;;;;;13.07;1.98;;;13.20;99.90;;;;;;5405272;26;20053;-70
2024/04/10 09:48:31;;;;;;;10.05;1.80;;;13.30;99.90;;;;;;5405210;26;20004;-71
2024/04/10 09:51:03;;;;;;;16.02;1.88;;;13.40;99.90;;;;;;5404935;26;20053;-71
2024/04/10 09:53:34;;;;;;;9.75;1.60;;;13.50;99.90;;;;;;5405032;26;20656;-71
2024/04/10 09:56:05;;;;;;;9.32;1.70;;;13.70;99.90;;;;;;5403698;26;20014;-71
2024/04/10 09:58:32;;;;;;;16.70;2.53;;;14.00;99.90;;;;;;5405382;26;20004;-71
2024/04/10 10:01:01;;;;;;;15.00;2.40;;;14.60;99.90;;;;;;5392049;26;20342;-71
2024/04/10 10:03:28;;;;;;;11.00;2.00;;;14.90;99.90;;;;;;5393738;26;20040;-71
2024/04/10 10:06:02;;;;;;;6.32;1.52;;;14.90;99.90;;;;;;5399114;26;20019;-71
2024/04/10 10:08:29;;;;;;;10.10;2.00;;;14.70;99.90;;;;;;5399159;26;20018;-71
2024/04/10 10:10:57;;;;;;;7.07;1.58;;;14.40;99.90;;;;;;5402637;26;19995;-71
2024/04/10 10:13:44;;;;;;;7.43;1.63;;;14.10;99.90;;;;;;5405888;26;20482;-71
2024/04/10 10:16:12;;;;;;;6.85;1.77;;;14.10;99.90;;;;;;5374163;26;20037;-70
2024/04/10 10:18:40;;;;;;;17.75;1.85;;;14.00;99.90;;;;;;5389202;26;20004;-71
2024/04/10 10:21:08;;;;;;;13.13;2.00;;;13.90;99.90;;;;;;5406670;26;20512;-71
2024/04/10 10:23:36;;;;;;;6.07;1.45;;;13.80;99.90;;;;;;5402350;26;19999;-71
2024/04/10 10:26:04;;;;;;;8.90;2.58;;;13.70;99.90;;;;;;5404172;26;20021;-71
2024/04/10 10:28:31;;;;;;;15.27;3.28;;;13.70;99.90;;;;;;5367316;26;20004;-71
2024/04/10 10:31:14;;;;;;;12.07;3.00;;;13.50;99.90;;;;;;5393303;26;20000;-70
2024/04/10 10:33:42;;;;;;;10.60;1.80;;;13.50;99.90;;;;;;5397295;26;20321;-71
2024/04/10 10:36:09;;;;;;;7.38;1.65;;;13.40;99.90;;;;;;5399861;26;20008;-71
2024/04/10 10:38:37;;;;;;;7.57;1.40;;;13.40;99.90;;;;;;5401510;26;20000;-70
2024/04/10 10:41:12;;;;;;;13.40;2.83;;;13.40;99.90;;;;;;5403436;26;20020;-71
2024/04/10 10:43:44;;;;;;;9.00;1.55;;;13.50;99.90;;;;;;5385729;26;19996;-70
2024/04/10 10:46:12;;;;;;;10.88;1.83;;;13.60;99.90;;;;;;5399614;26;20004;-70
2024/04/10 10:48:38;;;;;;;9.07;2.10;;;13.70;99.90;;;;;;5405428;26;19999;-71
2024/04/10 10:51:06;;;;;;;18.50;3.35;;;13.90;99.90;;;;;;5401902;26;20004;-71
2024/04/10 10:53:35;;;;;;;6.50;1.20;;;14.10;99.90;;;;;;5407092;26;20354;-70
2024/04/10 10:56:02;;;;;;;6.95;1.55;;;14.10;99.90;;;;;;5403877;26;20028;-71
2024/04/10 10:58:30;;;;;;;10.07;1.70;;;14.10;99.90;;;;;;5406282;26;20141;-70
2024/04/10 11:00:57;;;;;;;12.00;2.10;;;14.20;99.90;;;;;;5405320;26;20018;-71
2024/04/10 11:03:26;;;;;;;11.63;1.83;;;14.10;99.90;;;;;;5404982;26;20004;-71
2024/04/10 11:06:09;;;;;;;9.10;1.40;;;14.10;99.90;;;;;;5383037;26;20004;-70
2024/04/10 11:08:37;;;;;;;12.05;1.73;;;14.10;99.90;;;;;;5406110;26;20008;-71
2024/04/10 11:11:04;;;;;;;7.47;1.35;;;14.20;99.90;;;;;;5405535;26;21175;-71
2024/04/10 11:13:35;;;;;;;7.20;1.50;;;14.30;99.90;;;;;;5395705;26;20000;-71
2024/04/10 11:16:02;;;;;;;8.55;1.77;;;14.20;99.90;;;;;;5401019;26;20085;-71
2024/04/10 11:18:29;;;;;;;12.10;1.67;;;14.20;99.90;;;;;;5402674;26;20087;-71
2024/04/10 11:20:56;;;;;;;15.00;2.10;;;14.30;99.90;;;;;;5400619;26;20000;-70
2024/04/10 11:23:25;;;;;;;9.68;1.90;;;14.30;99.90;;;;;;5404188;26;20000;-71
2024/04/10 11:25:53;;;;;;;10.52;1.65;;;14.40;99.90;;;;;;5406583;26;19999;-69
2024/04/10 11:28:20;;;;;;;12.73;1.67;;;14.40;99.90;;;;;;5409585;26;20450;-70
2024/04/10 11:30:46;;;;;;;14.23;2.50;;;14.50;99.90;;;;;;5406882;26;20047;-70
2024/04/10 11:33:13;;;;;;;8.73;1.92;;;14.40;99.90;;;;;;5409334;26;20000;-70
2024/04/10 11:35:40;;;;;;;8.15;1.63;;;14.40;99.90;;;;;;5408643;26;20459;-69
2024/04/10 11:38:08;;;;;;;11.90;2.05;;;14.40;99.90;;;;;;5403640;26;20327;-69
2024/04/10 11:40:35;;;;;;;12.10;3.35;;;14.30;99.90;;;;;;5402570;26;20023;-69
2024/04/10 11:43:03;;;;;;;18.92;2.67;;;14.30;99.90;;;;;;5405684;26;20003;-70
2024/04/10 11:45:30;;;;;;;18.33;3.42;;;14.30;99.90;;;;;;5404815;26;20004;-70
2024/04/10 11:47:58;;;;;;;9.70;2.17;;;14.20;99.90;;;;;;5406054;26;20044;-69
2024/04/10 11:50:25;;;;;;;13.30;1.83;;;14.10;99.90;;;;;;5408255;26;20035;-70
2024/04/10 11:52:52;;;;;;;13.93;2.67;;;14.00;99.90;;;;;;5406669;26;20011;-70
2024/04/10 11:55:19;;;;;;;14.93;2.05;;;14.00;99.90;;;;;;5376214;26;20080;-70
2024/04/10 11:57:46;;;;;;;10.05;1.73;;;14.20;99.90;;;;;;5407060;26;20518;-70
2024/04/10 12:00:14;;;;;;;8.82;1.77;;;14.20;99.90;;;;;;5404714;26;20007;-70
2024/04/10 12:02:42;;;;;;;12.35;2.22;;;14.30;99.90;;;;;;5388221;26;20003;-70
2024/04/10 12:05:09;;;;;;;9.48;2.35;;;14.40;99.90;;;;;;5406835;26;20014;-70
2024/04/10 12:07:38;;;;;;;9.70;1.85;;;14.50;99.90;;;;;;5378391;26;20003;-70
2024/04/10 12:10:05;;;;;;;18.13;3.05;;;14.50;99.90;;;;;;5377577;26;20081;-70
2024/04/10 12:12:32;;;;;;;12.77;1.88;;;14.40;99.90;;;;;;5409383;26;20084;-70
2024/04/10 12:15:00;;;;;;;11.73;2.70;;;14.30;99.90;;;;;;5405199;26;20335;-70
2024/04/10 12:17:29;;;;;;;21.48;2.25;;;14.30;99.90;;;;;;5409570;26;19996;-70
2024/04/10 12:19:56;;;;;;;9.68;1.60;;;14.40;99.90;;;;;;5402058;26;20125;-70
2024/04/10 12:22:24;;;;;;;15.63;2.40;;;14.40;99.90;;;;;;5390877;26;20075;-70
2024/04/10 12:24:51;;;;;;;9.30;2.00;;;14.30;99.90;;;;;;5402348;26;20084;-70
2024/04/10 12:27:18;;;;;;;12.07;1.75;;;14.60;99.90;;;;;;5409430;26;20493;-70
2024/04/10 12:29:45;;;;;;;7.85;1.77;;;14.70;99.90;;;;;;5407851;26;20004;-70
2024/04/10 12:32:12;;;;;;;8.55;1.90;;;14.80;99.90;;;;;;5407245;26;20042;-70
2024/04/10 12:34:40;;;;;;;18.83;2.55;;;14.90;99.90;;;;;;5392207;26;20016;-70
2024/04/10 12:39:53;;;;;;;15.57;2.20;;;14.90;99.90;;;;;;5406178;26;19995;-71
2024/04/10 12:42:20;;;;;;;12.98;2.60;;;14.80;99.90;;;;;;5403884;26;20074;-70
2024/04/10 12:44:47;;;;;;;13.20;2.63;;;14.80;99.90;;;;;;5407070;26;20091;-70
2024/04/10 12:47:14;;;;;;;13.30;2.30;;;14.80;99.90;;;;;;5408689;26;20003;-71
2024/04/10 12:49:42;;;;;;;8.90;1.40;;;14.90;99.90;;;;;;5405593;26;19995;-71
2024/04/10 12:52:09;;;;;;;7.13;1.60;;;14.90;99.90;;;;;;5404672;26;20020;-71
2024/04/10 12:54:36;;;;;;;11.98;1.98;;;14.70;99.90;;;;;;5406592;26;19999;-71